Terminal Aerodrome Forecast
Issued by NWS

Home | Current Version | Previous Version | Text Only | Print | Product List | Glossary On
Versions: 1 2 3 4 5 6 7 8 9 10 11 12 13 14 15 16 17 18 19 20 21 22 23 24 25 26 27 28 29 30
000
FTUS45 KBYZ 051443 AAC
TAFLVM
TAF AMD
KLVM 051443Z 0515/0612 07015G26KT 3SM BR SCT008 OVC015
      TEMPO 0515/0518 -SHRA BKN008 OVC015
     FM052000 09015KT P6SM -SHRA OVC020
     FM060300 09008KT P6SM BKN050=

USA.gov is the U.S. government's official web portal to all federal, state and local government web resources and services.